KRIC/RIC METAR and TAF weather

Enter ICAO airport designator
Station Type Date Time Source
KRIC METAR 2020/01/23 20:54 UTC NOAA

KRIC 232054Z 08006KT 10SM OVC200 06/M01 A3031 RMK AO2 SLP271 T00611006 58014 $


Station Type Date Time Source
KRIC Decoded METAR 2020/01/23 20:54 UTC NOAA

RICHMOND INTERNATIONAL AIRPORT, VA, United States (KRIC) 37-31N 077-19W 50M
Jan 23, 2020 - 03:54 PM EST / 2020.01.23 2054 UTC
Wind: from the E (080 degrees) at 7 MPH (6 KT):0
Visibility: 10 mile(s):0
Sky conditions: overcast
Temperature: 43.0 F (6.1 C)
Dew Point: 30.9 F (-0.6 C)
Relative Humidity: 62%
Pressure (altimeter): 30.31 in. Hg (1026 hPa)
Pressure tendency: 0.04 inches (1.4 hPa) lower than three hours ago
ob: KRIC 232054Z 08006KT 10SM OVC200 06/M01 A3031 RMK AO2 SLP271 T00611006 58014
cycle: 21

Station Type Date Time Source
KRIC TAF 2020/01/23 19:42 UTC NOAA

TAF
AMD KRIC 231839Z 2319/2418 02003KT P6SM SCT030 BKN200
TEMPO 2319/2321 BKN030
FM240400 04003KT P6SM SCT050 BKN100
FM240900 03004KT P6SM BKN030
FM241300 06006KT P6SM BKN020

Example: see airport list